Airfield :
LOGIN :

Register | Disclaimer

   EN    FR    IT 

 










Legend :    VFR   Marginal VFR   IFR   Intensive IFR   Very Intensive IFR
Visi :
Ceiling :
>= 8 km
>= 3000ft
5 to 8 km
1000 to 3000 ft
1500m to 5 km
500 to 1000 ft
800 to 1500m
200 to 500 ft
< 800m
< 200 ft
Symbols :   Thunderstorms  Fog  Heavy snow  Heavy precipitations  Wind > 20 kt
SIGMETs :     Misc.  Thunderstorms  Icing  Turbulence  Mountain Waves  Volcanic Ashes







- Airport Elevation : 375 ft
- IATA code : MST


EHBK - Maastricht Aachen

CURRENT METAR :
  • 190255Z AUTO 32006KT 250V010 9999 -RA FEW019 SCT025 BKN032 05/04 Q1016

EXPIRED METARs :
  • 190225Z AUTO 28005KT 220V330 9999 SCT037 SCT042 05/03 Q1016
  • 190155Z AUTO 29008KT 230V360 9999 -RA FEW002 SCT011 BKN017 05/04 Q1016 RERAUP
  • 190125Z AUTO 27005KT 220V310 9999 FEW016 SCT019 05/04 Q1016
  • 190055Z AUTO 27004KT 220V300 9999 FEW024 BKN028 BKN031 05/05 Q1016
  • 190025Z AUTO 26004KT 210V320 9999 SCT024 BKN027 BKN030 05/05 Q1016
  • 182355Z AUTO 26005KT 210V300 9999 -RA FEW015CB SCT035 OVC039 06/05 Q1016

TAF TAF EHBK
Valid from the 19 at 00:00 until the 20 at 06:00 UTC


182308Z 1900/2006 25007KT 9999 BKN025
PROB30
TEMPO 1900/1902 6000 -SHRA BKN007 FEW015CB
BECMG 1909/1912 28011G21KT
PROB40
TEMPO 1909/1920 29012G25KT 6000 -SHRA BKN012 SCT020TCU
BECMG 1915/1918 27009KT
No reported NOTAMs for that airfield.



MET'MAP, your aeronautical weather chart ! - Copyright ORBIFLY December 2007 - Disclaimer

ORBIFLY MET'MAP TEAM :

Programming & Development : Alexandra Zaïnal
Concept & Development : Baudouin d'Aumeries
Co-Development & Prog : Marc-Olivier Méhu
Technical & hardware support : Manuel Goepfert

Contact : metmap@orbifly.com




SOURCES & CREDITS :

   NOAA